createdAt,value
2023-02-22T00:01:21.170Z,6.97
2023-02-22T00:03:51.961Z,7.40
2023-02-22T00:06:21.179Z,7.50
2023-02-22T00:08:49.339Z,6.63
2023-02-22T00:11:17.497Z,7.93
2023-02-22T00:13:45.123Z,7.00
2023-02-22T00:16:15.571Z,8.50
2023-02-22T00:18:43.672Z,6.40
2023-02-22T00:21:12.275Z,7.87
2023-02-22T00:23:45.822Z,9.03
2023-02-22T00:26:17.481Z,7.67
2023-02-22T00:28:46.263Z,7.60
2023-02-22T00:31:14.010Z,8.80
2023-02-22T00:33:41.858Z,8.83
2023-02-22T00:36:10.885Z,7.43
2023-02-22T00:38:38.603Z,7.87
2023-02-22T00:41:06.857Z,7.30
2023-02-22T00:43:35.248Z,7.53
2023-02-22T00:46:03.035Z,8.67
2023-02-22T00:48:30.538Z,8.43
2023-02-22T00:50:57.900Z,8.50
2023-02-22T00:53:26.015Z,7.93
2023-02-22T00:55:53.518Z,7.57
2023-02-22T00:58:21.572Z,8.60
2023-02-22T01:00:49.988Z,8.43
2023-02-22T01:03:19.836Z,7.73
2023-02-22T01:05:47.810Z,6.70
2023-02-22T01:08:16.268Z,7.07
2023-02-22T01:10:44.396Z,6.80
2023-02-22T01:13:12.961Z,7.23
2023-02-22T01:15:42.191Z,6.70
2023-02-22T01:18:11.887Z,7.33
2023-02-22T01:20:39.568Z,6.70
2023-02-22T01:23:07.246Z,7.20
2023-02-22T01:25:35.416Z,7.30
2023-02-22T01:28:04.465Z,7.80
2023-02-22T01:30:33.451Z,8.80
2023-02-22T01:33:01.873Z,8.00
2023-02-22T01:35:37.786Z,9.17
2023-02-22T01:38:05.323Z,9.30
2023-02-22T01:40:34.557Z,11.77
2023-02-22T01:43:04.392Z,12.10
2023-02-22T01:45:55.007Z,9.83
2023-02-22T01:48:30.078Z,9.97
2023-02-22T01:51:01.813Z,9.90
2023-02-22T01:53:35.439Z,9.70
2023-02-22T01:56:03.707Z,10.07
2023-02-22T01:58:35.280Z,9.10
2023-02-22T02:01:02.673Z,9.20
2023-02-22T02:03:33.052Z,8.50
2023-02-22T02:06:06.130Z,7.60
2023-02-22T02:08:38.398Z,8.40
2023-02-22T02:11:09.213Z,7.67
2023-02-22T02:13:37.054Z,9.30
2023-02-22T02:16:04.843Z,7.60
2023-02-22T02:18:32.282Z,8.17
2023-02-22T02:21:36.903Z,7.50
2023-02-22T02:24:34.580Z,7.90
2023-02-22T02:27:13.678Z,6.40
2023-02-22T02:30:31.987Z,8.30
2023-02-22T02:33:04.951Z,9.17
2023-02-22T02:35:55.535Z,8.20
2023-02-22T02:38:30.264Z,8.57
2023-02-22T02:41:05.294Z,8.00
2023-02-22T02:43:36.790Z,9.07
2023-02-22T02:46:09.693Z,9.13
2023-02-22T02:48:41.485Z,8.80
2023-02-22T02:51:13.534Z,7.57
2023-02-22T02:53:45.567Z,8.40
2023-02-22T02:56:12.961Z,9.17
2023-02-22T02:58:48.347Z,8.23
2023-02-22T03:01:28.296Z,8.20
2023-02-22T03:04:27.376Z,8.00
2023-02-22T03:07:16.485Z,8.90
2023-02-22T03:09:57.756Z,7.40
2023-02-22T03:12:37.890Z,8.57
2023-02-22T03:15:13.305Z,9.20
2023-02-22T03:17:47.571Z,7.70
2023-02-22T03:20:30.821Z,7.67
2023-02-22T03:23:03.455Z,8.70
2023-02-22T03:25:36.382Z,7.90
2023-02-22T03:28:06.828Z,7.37
2023-02-22T03:30:39.353Z,8.13
2023-02-22T03:33:11.794Z,8.93
2023-02-22T03:35:42.478Z,9.30
2023-02-22T03:38:14.794Z,10.47
2023-02-22T03:40:45.830Z,10.50
2023-02-22T03:43:16.479Z,8.93
2023-02-22T03:45:46.517Z,9.30
2023-02-22T03:48:20.883Z,8.10
2023-02-22T03:50:50.512Z,8.30
2023-02-22T03:53:18.821Z,8.30
2023-02-22T03:55:50.887Z,8.53
2023-02-22T03:58:21.333Z,9.27
2023-02-22T04:00:52.420Z,9.20
2023-02-22T04:03:19.993Z,8.20
2023-02-22T04:05:48.179Z,8.93
2023-02-22T04:08:16.171Z,8.33
2023-02-22T04:10:43.493Z,8.47
2023-02-22T04:13:11.171Z,8.30
2023-02-22T04:15:38.578Z,8.50
2023-02-22T04:18:06.259Z,8.97
2023-02-22T04:20:34.188Z,7.70
2023-02-22T04:23:02.290Z,8.30
2023-02-22T04:25:29.561Z,8.67
2023-02-22T04:27:57.150Z,8.10
2023-02-22T04:30:24.482Z,8.70
2023-02-22T04:32:51.826Z,9.43
2023-02-22T04:35:19.661Z,8.73
2023-02-22T04:37:47.207Z,8.27
2023-02-22T04:40:17.171Z,8.70
2023-02-22T04:42:44.495Z,10.40
2023-02-22T04:45:12.170Z,10.50
2023-02-22T04:47:39.616Z,10.87
2023-02-22T04:50:08.276Z,19.90
2023-02-22T04:52:35.587Z,21.77
2023-02-22T04:55:04.112Z,18.73
2023-02-22T04:57:32.194Z,11.10
2023-02-22T04:59:59.525Z,8.33
2023-02-22T05:02:26.974Z,10.00
2023-02-22T05:04:54.308Z,8.37
2023-02-22T05:07:21.620Z,8.73
2023-02-22T05:09:48.908Z,9.70
2023-02-22T05:12:16.421Z,10.50
2023-02-22T05:14:44.422Z,9.77
2023-02-22T05:17:11.936Z,9.67
2023-02-22T05:19:40.316Z,12.20
2023-02-22T05:22:07.640Z,14.60
2023-02-22T05:24:34.940Z,14.73
2023-02-22T05:27:02.174Z,14.87
2023-02-22T05:29:29.444Z,20.17
2023-02-22T05:31:58.104Z,21.43
2023-02-22T05:34:25.454Z,22.67
2023-02-22T05:36:52.739Z,19.53
2023-02-22T05:39:20.115Z,20.03
2023-02-22T05:41:47.753Z,15.20
2023-02-22T05:44:15.088Z,16.07
2023-02-22T05:46:42.435Z,16.60
2023-02-22T05:49:10.413Z,27.80
2023-02-22T05:51:37.734Z,17.03
2023-02-22T05:54:05.223Z,33.23
2023-02-22T05:56:32.586Z,52.43
2023-02-22T05:58:59.986Z,30.73
2023-02-22T06:01:27.874Z,33.00
2023-02-22T06:03:55.129Z,30.20
2023-02-22T06:06:23.064Z,26.00
2023-02-22T06:08:50.517Z,18.13
2023-02-22T06:11:19.163Z,11.60
2023-02-22T06:13:51.101Z,12.63
2023-02-22T06:16:18.719Z,12.50
2023-02-22T06:18:46.079Z,14.57
2023-02-22T06:21:13.341Z,12.00
2023-02-22T06:23:41.275Z,10.30
2023-02-22T06:26:08.573Z,12.03
2023-02-22T06:28:36.080Z,11.00
2023-02-22T06:31:03.575Z,11.10
2023-02-22T06:33:30.877Z,11.90
2023-02-22T06:35:58.137Z,11.50
2023-02-22T06:38:27.016Z,9.67
2023-02-22T06:40:55.027Z,12.97
2023-02-22T06:43:23.568Z,11.27
2023-02-22T06:45:51.611Z,10.23
2023-02-22T06:48:18.990Z,11.40
2023-02-22T06:50:46.323Z,11.17
2023-02-22T06:53:13.644Z,11.43
2023-02-22T06:55:40.935Z,10.40
2023-02-22T06:58:08.900Z,13.77
2023-02-22T07:00:36.206Z,9.97
2023-02-22T07:03:04.694Z,10.50
2023-02-22T07:05:32.000Z,12.93
2023-02-22T07:08:04.167Z,13.10
2023-02-22T07:10:33.029Z,10.90
2023-02-22T07:13:00.539Z,10.80
2023-02-22T07:15:30.135Z,12.60
2023-02-22T07:17:58.058Z,14.10
2023-02-22T07:20:26.386Z,11.37
2023-02-22T07:22:53.736Z,11.10
2023-02-22T07:25:22.319Z,12.40
2023-02-22T07:27:51.687Z,10.83
2023-02-22T07:30:24.382Z,10.97
2023-02-22T07:32:53.290Z,10.20
2023-02-22T07:35:22.999Z,10.87
2023-02-22T07:37:50.349Z,10.70
2023-02-22T07:40:18.495Z,10.03
2023-02-22T07:42:57.323Z,11.17
2023-02-22T07:45:25.773Z,11.13
2023-02-22T07:47:54.376Z,12.80
2023-02-22T07:50:23.912Z,11.73
2023-02-22T07:52:53.643Z,23.77
2023-02-22T07:55:23.228Z,25.87
2023-02-22T07:57:52.241Z,22.83
2023-02-22T08:00:24.232Z,22.70
2023-02-22T08:02:52.230Z,25.90
2023-02-22T08:05:20.295Z,26.60
2023-02-22T08:07:47.585Z,31.70
2023-02-22T08:10:18.258Z,26.60
2023-02-22T08:12:45.558Z,31.67
2023-02-22T08:15:17.511Z,26.33
2023-02-22T08:17:44.855Z,16.90
2023-02-22T08:20:13.418Z,27.33
2023-02-22T08:22:43.673Z,22.07
2023-02-22T08:25:10.957Z,13.73
2023-02-22T08:27:38.352Z,15.10
2023-02-22T08:30:06.999Z,14.00
2023-02-22T08:32:34.780Z,13.87
2023-02-22T08:35:03.311Z,15.27
2023-02-22T08:37:31.298Z,14.20
2023-02-22T08:39:58.572Z,13.83
2023-02-22T08:42:25.939Z,12.83
2023-02-22T08:44:53.150Z,13.17
2023-02-22T08:47:20.429Z,14.13
2023-02-22T08:49:47.675Z,15.93
2023-02-22T08:52:14.924Z,13.17
2023-02-22T08:54:44.864Z,12.37
2023-02-22T08:57:12.214Z,15.43
2023-02-22T08:59:39.599Z,88.43
2023-02-22T09:02:13.414Z,31.57
2023-02-22T09:04:40.817Z,33.03
2023-02-22T09:07:08.153Z,27.00
2023-02-22T09:09:35.527Z,19.30
2023-02-22T09:12:04.423Z,17.53
2023-02-22T09:14:31.793Z,16.67
2023-02-22T09:16:59.017Z,13.50
2023-02-22T09:19:26.296Z,14.03
2023-02-22T09:21:54.399Z,14.40
2023-02-22T09:24:21.663Z,14.80
2023-02-22T09:26:53.421Z,13.90
2023-02-22T09:29:22.401Z,12.50
2023-02-22T09:31:51.183Z,13.03
2023-02-22T09:34:19.541Z,11.87
2023-02-22T09:36:47.697Z,13.53
2023-02-22T09:39:16.215Z,14.07
2023-02-22T09:41:51.090Z,13.13
2023-02-22T09:44:26.417Z,11.70
2023-02-22T09:46:55.517Z,11.87
2023-02-22T09:49:29.306Z,11.07
2023-02-22T09:52:01.532Z,23.10
2023-02-22T09:54:34.371Z,12.40
2023-02-22T09:57:07.942Z,10.53
2023-02-22T09:59:39.969Z,11.80
2023-02-22T10:02:24.212Z,12.20
2023-02-22T10:04:57.156Z,11.00
2023-02-22T10:07:28.934Z,12.40
2023-02-22T10:09:57.826Z,11.53
2023-02-22T10:12:30.395Z,10.60
2023-02-22T10:15:47.284Z,12.23
2023-02-22T10:18:49.540Z,9.60
2023-02-22T10:21:39.655Z,11.50
2023-02-22T10:24:18.227Z,10.00
2023-02-22T10:26:46.567Z,10.67
2023-02-22T10:29:23.230Z,10.13
2023-02-22T10:31:56.529Z,11.10
2023-02-22T10:34:26.137Z,10.57
2023-02-22T10:36:58.156Z,8.93
2023-02-22T10:39:30.358Z,8.10
2023-02-22T10:42:05.170Z,10.73
2023-02-22T10:44:33.013Z,11.40
2023-02-22T10:47:02.435Z,9.63
2023-02-22T10:49:34.175Z,11.30
2023-02-22T10:52:03.715Z,15.67
2023-02-22T10:54:34.880Z,10.80
2023-02-22T10:57:03.308Z,10.67
2023-02-22T10:59:33.365Z,10.07
2023-02-22T11:02:07.754Z,11.50
2023-02-22T11:04:46.811Z,9.60
2023-02-22T11:07:23.819Z,9.60
2023-02-22T11:09:54.099Z,9.90
2023-02-22T11:12:28.664Z,8.33
2023-02-22T11:14:56.358Z,7.40
2023-02-22T11:17:30.803Z,5.93
2023-02-22T11:19:59.720Z,5.70
2023-02-22T11:22:30.250Z,6.27
2023-02-22T11:25:00.595Z,7.40
2023-02-22T11:27:33.108Z,7.67
2023-02-22T11:30:28.300Z,8.00
2023-02-22T11:32:58.582Z,5.33
2023-02-22T11:35:48.856Z,6.00
2023-02-22T11:38:20.393Z,3.93
2023-02-22T11:41:04.152Z,3.60
2023-02-22T11:43:31.871Z,4.20
2023-02-22T11:46:03.343Z,5.00
2023-02-22T11:48:35.898Z,7.43
2023-02-22T11:51:16.800Z,9.40
2023-02-22T11:54:12.618Z,8.40
2023-02-22T11:56:44.807Z,14.73
2023-02-22T11:59:23.399Z,11.70
2023-02-22T12:01:55.318Z,10.47
2023-02-22T12:04:55.263Z,8.33
2023-02-22T12:07:36.685Z,8.93
2023-02-22T12:10:17.624Z,9.23
2023-02-22T12:13:03.497Z,8.17
2023-02-22T12:15:39.457Z,8.53
2023-02-22T12:18:13.594Z,8.30
2023-02-22T12:20:45.557Z,8.73
2023-02-22T12:23:19.952Z,8.47
2023-02-22T12:25:57.973Z,8.10
2023-02-22T12:28:35.782Z,8.60
2023-02-22T12:31:15.814Z,10.27
2023-02-22T12:33:49.500Z,9.50
2023-02-22T12:36:22.335Z,9.90
2023-02-22T12:38:54.668Z,14.03
2023-02-22T12:41:28.802Z,11.00
2023-02-22T12:44:02.142Z,9.30
2023-02-22T12:46:33.690Z,8.80
2023-02-22T12:49:07.787Z,8.30
2023-02-22T12:51:42.723Z,9.30
2023-02-22T12:54:19.854Z,7.77
2023-02-22T12:56:54.342Z,8.13
2023-02-22T12:59:28.574Z,7.87
2023-02-22T13:01:59.313Z,7.10
2023-02-22T13:04:26.683Z,7.93
2023-02-22T13:07:08.066Z,8.00
2023-02-22T13:10:02.928Z,6.40
2023-02-22T13:12:40.169Z,6.83
2023-02-22T13:15:18.506Z,6.30
2023-02-22T13:17:54.506Z,7.50
2023-02-22T13:20:27.045Z,7.10
2023-02-22T13:23:00.248Z,9.00
2023-02-22T13:25:36.964Z,6.83
2023-02-22T13:28:18.695Z,8.53
2023-02-22T13:30:58.006Z,7.60
2023-02-22T13:33:53.414Z,7.30
2023-02-22T13:36:37.255Z,7.77
2023-02-22T13:39:59.369Z,7.93
2023-02-22T13:42:45.027Z,8.53
2023-02-22T13:45:52.428Z,8.90
2023-02-22T13:48:53.305Z,8.47
2023-02-22T13:51:39.498Z,8.60
2023-02-22T13:54:13.169Z,9.33
2023-02-22T13:56:44.586Z,9.47
2023-02-22T13:59:25.020Z,9.37
2023-02-22T14:01:54.168Z,8.80
2023-02-22T14:04:39.231Z,9.33
2023-02-22T14:07:54.707Z,8.60
2023-02-22T14:10:48.369Z,9.37
2023-02-22T14:13:17.440Z,5.97
2023-02-22T14:16:17.973Z,6.93
2023-02-22T14:18:48.691Z,8.03
2023-02-22T14:21:18.526Z,7.10
2023-02-22T14:23:47.424Z,7.73
2023-02-22T14:26:18.958Z,8.17
2023-02-22T14:28:54.038Z,8.43
2023-02-22T14:31:35.483Z,8.60
2023-02-22T14:34:09.836Z,7.70
2023-02-22T14:36:44.456Z,6.17
2023-02-22T14:39:25.569Z,7.83
2023-02-22T14:42:00.724Z,7.70
2023-02-22T14:44:35.168Z,8.40
2023-02-22T14:47:07.692Z,8.03
2023-02-22T14:49:40.809Z,7.63
2023-02-22T14:52:18.422Z,9.63
2023-02-22T14:55:04.582Z,9.50
2023-02-22T14:57:41.546Z,8.17
2023-02-22T15:00:19.693Z,8.43
2023-02-22T15:02:48.688Z,8.83
2023-02-22T15:05:20.113Z,9.63
2023-02-22T15:07:56.030Z,9.80
2023-02-22T15:10:27.282Z,9.50
2023-02-22T15:13:07.980Z,10.70
2023-02-22T15:15:37.684Z,9.90
2023-02-22T15:18:11.063Z,9.33
2023-02-22T15:20:38.595Z,9.80
2023-02-22T15:23:06.582Z,8.40
2023-02-22T15:25:36.879Z,9.77
2023-02-22T15:28:08.657Z,9.60
2023-02-22T17:36:39.278Z,10.50
2023-02-22T17:39:09.724Z,12.83
2023-02-22T17:41:40.058Z,11.63
2023-02-22T17:44:07.799Z,12.00
2023-02-22T17:46:36.268Z,10.53
2023-02-22T17:49:03.703Z,11.40
2023-02-22T17:51:31.061Z,11.40
2023-02-22T17:53:59.082Z,13.50
2023-02-22T17:56:26.391Z,12.40
2023-02-22T17:58:54.859Z,12.53
2023-02-22T18:01:24.649Z,13.77
2023-02-22T18:03:52.616Z,13.60
2023-02-22T18:06:24.809Z,13.10
2023-02-22T18:08:55.714Z,13.70
2023-02-22T18:11:25.883Z,17.53
2023-02-22T18:13:53.736Z,14.43
2023-02-22T18:16:21.497Z,12.53
2023-02-22T18:18:49.502Z,11.80
2023-02-22T18:21:17.048Z,11.40
2023-02-22T18:23:44.829Z,11.53
2023-02-22T18:26:15.970Z,11.10
2023-02-22T18:28:47.890Z,13.43
2023-02-22T18:31:17.069Z,11.73
2023-02-22T18:33:45.479Z,11.53
2023-02-22T18:36:13.731Z,12.40
2023-02-22T18:38:42.477Z,13.00
2023-02-22T18:41:12.136Z,12.70
2023-02-22T18:43:39.889Z,12.80
2023-02-22T18:46:10.136Z,14.53
2023-02-22T18:48:37.894Z,13.87
2023-02-22T18:51:08.747Z,13.23
2023-02-22T18:53:36.788Z,15.20
2023-02-22T18:56:05.755Z,14.37
2023-02-22T18:58:33.520Z,15.33
2023-02-22T19:01:00.907Z,14.83
2023-02-22T19:03:29.277Z,13.50
2023-02-22T19:06:00.351Z,14.87
2023-02-22T19:08:27.912Z,13.93
2023-02-22T19:10:55.179Z,14.10
2023-02-22T19:13:22.580Z,13.40
2023-02-22T19:15:49.888Z,14.90
2023-02-22T19:18:17.304Z,13.83
2023-02-22T19:20:54.603Z,13.80
2023-02-22T19:23:21.866Z,12.77
2023-02-22T19:25:49.872Z,15.97
2023-02-22T19:28:17.209Z,17.13
2023-02-22T19:30:44.554Z,16.77
2023-02-22T19:33:11.978Z,18.40
2023-02-22T19:35:47.395Z,15.40
2023-02-22T19:38:15.556Z,16.47
2023-02-22T19:40:42.893Z,14.90
2023-02-22T19:43:10.234Z,17.20
2023-02-22T19:45:40.099Z,16.00
2023-02-22T19:48:07.782Z,16.10
2023-02-22T19:50:35.147Z,17.50
2023-02-22T19:53:02.678Z,17.07
2023-02-22T19:55:31.580Z,15.40
2023-02-22T19:57:58.935Z,16.07
2023-02-22T20:00:27.124Z,16.20
2023-02-22T20:03:04.821Z,15.07
2023-02-22T20:05:32.935Z,15.30
2023-02-22T20:08:00.551Z,18.10
2023-02-22T20:10:27.900Z,17.40
2023-02-22T20:12:55.924Z,16.20
2023-02-22T20:15:23.296Z,17.13
2023-02-22T20:17:50.818Z,16.90
2023-02-22T20:20:18.492Z,16.33
2023-02-22T20:22:45.879Z,15.33
2023-02-22T20:25:13.314Z,14.97
2023-02-22T20:27:40.606Z,15.57
2023-02-22T20:30:09.966Z,16.97
2023-02-22T20:32:37.454Z,16.33
2023-02-22T20:35:05.663Z,16.17
2023-02-22T20:37:33.413Z,18.50
2023-02-22T20:40:03.647Z,22.13
2023-02-22T20:42:31.486Z,27.50
2023-02-22T20:45:01.213Z,23.87
2023-02-22T20:47:29.192Z,23.07
2023-02-22T20:49:56.524Z,18.43
2023-02-22T20:52:23.913Z,15.60
2023-02-22T20:54:51.199Z,18.20
2023-02-22T20:57:18.543Z,18.80
2023-02-22T20:59:46.952Z,20.00
2023-02-22T21:02:14.242Z,23.10
2023-02-22T21:04:42.370Z,31.57
2023-02-22T21:07:09.790Z,38.33
2023-02-22T21:09:37.649Z,27.50
2023-02-22T21:12:12.562Z,23.90
2023-02-22T21:14:40.719Z,21.13
2023-02-22T21:17:08.841Z,18.47
2023-02-22T21:19:36.601Z,17.67
2023-02-22T21:22:07.613Z,17.80
2023-02-22T21:24:36.252Z,19.50
2023-02-22T21:27:06.120Z,17.53
2023-02-22T21:29:34.874Z,18.80
2023-02-22T21:32:02.562Z,19.00
2023-02-22T21:34:30.086Z,17.50
2023-02-22T21:36:57.442Z,16.87
2023-02-22T21:39:27.916Z,19.67
2023-02-22T21:41:59.368Z,17.87
2023-02-22T21:44:27.625Z,19.53
2023-02-22T21:46:55.066Z,20.10
2023-02-22T21:49:22.501Z,19.40
2023-02-22T21:51:51.339Z,17.40
2023-02-22T21:54:19.292Z,17.50
2023-02-22T21:56:47.643Z,19.40
2023-02-22T21:59:18.199Z,17.23
2023-02-22T22:01:49.009Z,19.20
2023-02-22T22:04:18.595Z,18.20
2023-02-22T22:06:48.125Z,20.10
2023-02-22T22:09:19.025Z,19.33
2023-02-22T22:11:49.347Z,17.97
2023-02-22T22:14:17.094Z,19.60
2023-02-22T22:16:47.344Z,17.90
2023-02-22T22:19:14.767Z,17.70
2023-02-22T22:21:42.196Z,19.00
2023-02-22T22:24:10.093Z,18.80
2023-02-22T22:26:38.145Z,18.77
2023-02-22T22:29:09.412Z,19.30
2023-02-22T22:31:37.133Z,19.43
2023-02-22T22:34:05.333Z,19.23
2023-02-22T22:36:33.766Z,19.47
2023-02-22T22:39:01.290Z,19.17
2023-02-22T22:41:28.677Z,18.33
2023-02-22T22:43:56.276Z,19.20
2023-02-22T22:46:24.384Z,18.27
2023-02-22T22:48:51.722Z,18.20
2023-02-22T22:51:22.694Z,18.83
2023-02-22T22:53:50.628Z,20.50
2023-02-22T22:56:19.786Z,19.20
2023-02-22T22:58:49.448Z,19.10
2023-02-22T23:01:19.288Z,18.87
2023-02-22T23:03:54.172Z,18.67
2023-02-22T23:06:24.632Z,19.13
2023-02-22T23:09:09.681Z,18.67
2023-02-22T23:11:38.130Z,17.50
2023-02-22T23:14:06.404Z,17.90
2023-02-22T23:16:33.794Z,19.40
2023-02-22T23:19:01.789Z,16.43
2023-02-22T23:21:29.097Z,16.73
2023-02-22T23:23:57.808Z,19.67
2023-02-22T23:26:26.094Z,16.73
2023-02-22T23:28:58.471Z,18.40
2023-02-22T23:31:28.124Z,18.67
2023-02-22T23:33:57.868Z,18.80
2023-02-22T23:36:26.392Z,19.23
2023-02-22T23:38:53.867Z,18.07
2023-02-22T23:41:24.271Z,18.63
2023-02-22T23:43:51.616Z,18.07
2023-02-22T23:46:19.113Z,20.60
2023-02-22T23:48:51.202Z,19.53
2023-02-22T23:51:24.453Z,20.40
2023-02-22T23:53:54.954Z,19.60
2023-02-22T23:56:24.093Z,21.00
2023-02-22T23:58:51.986Z,19.30
